Archival Weather

Chicago O'Hare International

Chicago, Illinois (KORD)

Report from: Wednesday, March 27, 2024 8:51 AM CDT
Current time: Tuesday, May 21, 2024 11:06 AM CDT

Current weather – Weather history – Daily summaries
Weather forecast

Temperature-1.1°C (30.0°F)
Wind chill-6.9°C (19.5°F)
Dew point-6.7°C (19.9°F)
Winds 12 kts (6.2 m/s, 13.8 mph) West (280°)
Wind gusts 23 kts (11.8 m/s, 26.5 mph)
Peak wind 26 kts (13.4 m/s, 29.9 mph) West (260°) at 12:57
Visibility10 mi. (16.1 km)
Clouds Ceiling: Overcast 2,600 ft. (792 m)
Altimeter30.00 in.Hg (1016 mB)
Relative humidity66 %
Density altitude-2,020 ft. (-616 m)
Sea-level pressure101.6 kPa (1016 mB, 30.01 in.Hg)
Remarks System requires maintenance
Automated weather observing station with precipitation discriminator
Flight conditions Marginal Visual Meteorological Conditions
Raw dataKORD 271351Z 28012G23KT 10SM OVC026 M01/M07 A3000 RMK AO2 PK WND 26026/1257 SLP164 T10111067 $
An error has occurred. This application may no longer respond until reloaded. Reload 🗙